sensor_id;sensor_type;location;lat;lon;timestamp;P1;durP1;ratioP1;P2;durP2;ratioP2
18042;SDS011;9146;48.074;11.968;2022-10-16T00:01:32;4.43;;;3.90;;
18042;SDS011;9146;48.074;11.968;2022-10-16T00:03:59;6.03;;;4.07;;
18042;SDS011;9146;48.074;11.968;2022-10-16T00:06:27;5.37;;;4.13;;
18042;SDS011;9146;48.074;11.968;2022-10-16T00:08:56;5.90;;;4.90;;
18042;SDS011;9146;48.074;11.968;2022-10-16T00:11:23;5.27;;;4.80;;
18042;SDS011;9146;48.074;11.968;2022-10-16T00:13:56;4.80;;;3.93;;
18042;SDS011;9146;48.074;11.968;2022-10-16T00:16:25;3.50;;;3.20;;
18042;SDS011;9146;48.074;11.968;2022-10-16T00:18:52;3.67;;;3.37;;
18042;SDS011;9146;48.074;11.968;2022-10-16T00:21:20;4.77;;;4.23;;
18042;SDS011;9146;48.074;11.968;2022-10-16T00:23:50;4.93;;;4.40;;
18042;SDS011;9146;48.074;11.968;2022-10-16T00:26:17;4.10;;;3.80;;
18042;SDS011;9146;48.074;11.968;2022-10-16T00:28:45;4.67;;;4.20;;
18042;SDS011;9146;48.074;11.968;2022-10-16T00:31:13;5.40;;;4.20;;
18042;SDS011;9146;48.074;11.968;2022-10-16T00:33:41;4.50;;;4.10;;
18042;SDS011;9146;48.074;11.968;2022-10-16T00:36:10;6.43;;;5.40;;
18042;SDS011;9146;48.074;11.968;2022-10-16T00:38:38;5.77;;;4.20;;
18042;SDS011;9146;48.074;11.968;2022-10-16T00:41:05;8.80;;;3.90;;
18042;SDS011;9146;48.074;11.968;2022-10-16T00:43:35;4.00;;;3.60;;
18042;SDS011;9146;48.074;11.968;2022-10-16T00:46:04;4.70;;;3.90;;
18042;SDS011;9146;48.074;11.968;2022-10-16T00:48:38;5.17;;;4.53;;
18042;SDS011;9146;48.074;11.968;2022-10-16T00:51:05;4.97;;;4.50;;
18042;SDS011;9146;48.074;11.968;2022-10-16T00:53:33;4.77;;;4.30;;
18042;SDS011;9146;48.074;11.968;2022-10-16T00:56:00;4.43;;;4.00;;
18042;SDS011;9146;48.074;11.968;2022-10-16T00:58:28;4.90;;;4.40;;
18042;SDS011;9146;48.074;11.968;2022-10-16T01:00:55;5.20;;;4.23;;
18042;SDS011;9146;48.074;11.968;2022-10-16T01:03:23;5.47;;;3.73;;
18042;SDS011;9146;48.074;11.968;2022-10-16T01:05:56;3.73;;;3.43;;
18042;SDS011;9146;48.074;11.968;2022-10-16T01:08:37;5.57;;;3.63;;
18042;SDS011;9146;48.074;11.968;2022-10-16T01:11:12;4.00;;;3.60;;
18042;SDS011;9146;48.074;11.968;2022-10-16T01:13:46;6.40;;;4.93;;
18042;SDS011;9146;48.074;11.968;2022-10-16T01:16:17;8.93;;;5.30;;
18042;SDS011;9146;48.074;11.968;2022-10-16T01:18:54;4.40;;;3.97;;
18042;SDS011;9146;48.074;11.968;2022-10-16T01:21:30;4.40;;;4.00;;
18042;SDS011;9146;48.074;11.968;2022-10-16T01:24:02;3.53;;;3.30;;
18042;SDS011;9146;48.074;11.968;2022-10-16T01:26:41;3.50;;;3.20;;
18042;SDS011;9146;48.074;11.968;2022-10-16T01:29:20;5.23;;;4.20;;
18042;SDS011;9146;48.074;11.968;2022-10-16T01:31:53;7.60;;;4.20;;
18042;SDS011;9146;48.074;11.968;2022-10-16T01:34:25;5.20;;;4.50;;
18042;SDS011;9146;48.074;11.968;2022-10-16T01:37:00;5.00;;;4.50;;
18042;SDS011;9146;48.074;11.968;2022-10-16T01:39:32;6.17;;;4.47;;
18042;SDS011;9146;48.074;11.968;2022-10-16T01:42:03;7.93;;;4.90;;
18042;SDS011;9146;48.074;11.968;2022-10-16T01:44:35;5.50;;;4.50;;
18042;SDS011;9146;48.074;11.968;2022-10-16T01:47:04;4.40;;;4.00;;
18042;SDS011;9146;48.074;11.968;2022-10-16T01:49:34;4.97;;;4.43;;
18042;SDS011;9146;48.074;11.968;2022-10-16T01:52:04;4.20;;;3.80;;
18042;SDS011;9146;48.074;11.968;2022-10-16T01:54:34;4.83;;;3.30;;
18042;SDS011;9146;48.074;11.968;2022-10-16T01:57:03;5.20;;;4.70;;
18042;SDS011;9146;48.074;11.968;2022-10-16T01:59:32;5.13;;;4.63;;
18042;SDS011;9146;48.074;11.968;2022-10-16T02:02:07;5.57;;;4.30;;
18042;SDS011;9146;48.074;11.968;2022-10-16T02:04:36;4.70;;;4.20;;
18042;SDS011;9146;48.074;11.968;2022-10-16T02:07:06;3.73;;;3.40;;
18042;SDS011;9146;48.074;11.968;2022-10-16T02:09:33;5.30;;;4.80;;
18042;SDS011;9146;48.074;11.968;2022-10-16T02:12:03;5.40;;;4.90;;
18042;SDS011;9146;48.074;11.968;2022-10-16T02:14:34;5.07;;;4.43;;
18042;SDS011;9146;48.074;11.968;2022-10-16T02:17:09;5.37;;;4.83;;
18042;SDS011;9146;48.074;11.968;2022-10-16T02:19:38;4.20;;;3.80;;
18042;SDS011;9146;48.074;11.968;2022-10-16T02:22:05;4.53;;;4.13;;
18042;SDS011;9146;48.074;11.968;2022-10-16T02:24:37;4.77;;;4.37;;
18042;SDS011;9146;48.074;11.968;2022-10-16T02:27:10;4.43;;;4.03;;
18042;SDS011;9146;48.074;11.968;2022-10-16T02:29:47;4.33;;;3.97;;
18042;SDS011;9146;48.074;11.968;2022-10-16T02:32:19;5.20;;;4.07;;
18042;SDS011;9146;48.074;11.968;2022-10-16T02:34:49;4.37;;;3.97;;
18042;SDS011;9146;48.074;11.968;2022-10-16T02:37:17;5.20;;;4.70;;
18042;SDS011;9146;48.074;11.968;2022-10-16T02:39:45;6.10;;;4.60;;
18042;SDS011;9146;48.074;11.968;2022-10-16T02:42:12;4.37;;;3.87;;
18042;SDS011;9146;48.074;11.968;2022-10-16T02:44:41;5.00;;;4.60;;
18042;SDS011;9146;48.074;11.968;2022-10-16T02:47:10;6.93;;;5.20;;
18042;SDS011;9146;48.074;11.968;2022-10-16T02:49:37;5.97;;;5.23;;
18042;SDS011;9146;48.074;11.968;2022-10-16T02:52:04;5.13;;;4.63;;
18042;SDS011;9146;48.074;11.968;2022-10-16T02:54:31;5.17;;;3.80;;
18042;SDS011;9146;48.074;11.968;2022-10-16T02:56:58;5.77;;;4.90;;
18042;SDS011;9146;48.074;11.968;2022-10-16T02:59:24;3.90;;;3.60;;
18042;SDS011;9146;48.074;11.968;2022-10-16T03:01:53;4.73;;;4.33;;
18042;SDS011;9146;48.074;11.968;2022-10-16T03:04:19;7.20;;;4.70;;
18042;SDS011;9146;48.074;11.968;2022-10-16T03:06:46;5.13;;;4.63;;
18042;SDS011;9146;48.074;11.968;2022-10-16T03:09:13;4.07;;;3.70;;
18042;SDS011;9146;48.074;11.968;2022-10-16T03:11:41;4.47;;;3.63;;
18042;SDS011;9146;48.074;11.968;2022-10-16T03:14:07;4.30;;;3.90;;
18042;SDS011;9146;48.074;11.968;2022-10-16T03:16:34;3.53;;;3.23;;
18042;SDS011;9146;48.074;11.968;2022-10-16T03:19:03;6.30;;;4.70;;
18042;SDS011;9146;48.074;11.968;2022-10-16T03:21:29;4.23;;;3.93;;
18042;SDS011;9146;48.074;11.968;2022-10-16T03:23:56;4.43;;;4.03;;
18042;SDS011;9146;48.074;11.968;2022-10-16T03:26:23;5.10;;;4.60;;
18042;SDS011;9146;48.074;11.968;2022-10-16T03:28:50;5.50;;;4.50;;
18042;SDS011;9146;48.074;11.968;2022-10-16T03:31:17;4.40;;;4.00;;
18042;SDS011;9146;48.074;11.968;2022-10-16T03:33:44;4.20;;;3.80;;
18042;SDS011;9146;48.074;11.968;2022-10-16T03:36:12;4.47;;;4.10;;
18042;SDS011;9146;48.074;11.968;2022-10-16T03:38:39;3.70;;;3.40;;
18042;SDS011;9146;48.074;11.968;2022-10-16T03:41:06;4.10;;;3.80;;
18042;SDS011;9146;48.074;11.968;2022-10-16T03:43:33;5.07;;;3.93;;
18042;SDS011;9146;48.074;11.968;2022-10-16T03:46:00;4.30;;;4.00;;
18042;SDS011;9146;48.074;11.968;2022-10-16T03:48:26;5.20;;;4.70;;
18042;SDS011;9146;48.074;11.968;2022-10-16T03:50:53;10.70;;;5.33;;
18042;SDS011;9146;48.074;11.968;2022-10-16T03:53:22;5.50;;;4.73;;
18042;SDS011;9146;48.074;11.968;2022-10-16T03:55:48;7.17;;;5.37;;
18042;SDS011;9146;48.074;11.968;2022-10-16T03:58:15;7.17;;;5.83;;
18042;SDS011;9146;48.074;11.968;2022-10-16T04:00:45;5.97;;;5.20;;
18042;SDS011;9146;48.074;11.968;2022-10-16T04:03:14;4.50;;;4.10;;
18042;SDS011;9146;48.074;11.968;2022-10-16T04:05:41;5.00;;;4.43;;
18042;SDS011;9146;48.074;11.968;2022-10-16T04:08:07;4.17;;;3.77;;
18042;SDS011;9146;48.074;11.968;2022-10-16T04:10:36;4.57;;;4.13;;
18042;SDS011;9146;48.074;11.968;2022-10-16T04:13:02;5.20;;;4.20;;
18042;SDS011;9146;48.074;11.968;2022-10-16T04:15:29;5.00;;;4.30;;
18042;SDS011;9146;48.074;11.968;2022-10-16T04:17:56;4.53;;;4.17;;
18042;SDS011;9146;48.074;11.968;2022-10-16T04:20:23;4.20;;;3.80;;
18042;SDS011;9146;48.074;11.968;2022-10-16T04:22:50;5.87;;;4.37;;
18042;SDS011;9146;48.074;11.968;2022-10-16T04:25:17;4.70;;;4.20;;
18042;SDS011;9146;48.074;11.968;2022-10-16T04:27:45;4.63;;;4.23;;
18042;SDS011;9146;48.074;11.968;2022-10-16T04:30:12;4.90;;;4.10;;
18042;SDS011;9146;48.074;11.968;2022-10-16T04:32:39;5.47;;;4.40;;
18042;SDS011;9146;48.074;11.968;2022-10-16T04:35:06;7.80;;;5.23;;
18042;SDS011;9146;48.074;11.968;2022-10-16T04:37:33;4.37;;;3.97;;
18042;SDS011;9146;48.074;11.968;2022-10-16T04:40:00;4.30;;;3.90;;
18042;SDS011;9146;48.074;11.968;2022-10-16T04:42:27;7.77;;;5.40;;
18042;SDS011;9146;48.074;11.968;2022-10-16T04:44:55;6.70;;;4.70;;
18042;SDS011;9146;48.074;11.968;2022-10-16T04:47:22;8.00;;;4.90;;
18042;SDS011;9146;48.074;11.968;2022-10-16T04:49:49;5.03;;;4.53;;
18042;SDS011;9146;48.074;11.968;2022-10-16T04:52:16;6.53;;;4.70;;
18042;SDS011;9146;48.074;11.968;2022-10-16T04:54:44;4.93;;;4.40;;
18042;SDS011;9146;48.074;11.968;2022-10-16T04:57:11;5.70;;;4.93;;
18042;SDS011;9146;48.074;11.968;2022-10-16T04:59:38;5.20;;;4.50;;
18042;SDS011;9146;48.074;11.968;2022-10-16T05:02:06;9.27;;;6.80;;
18042;SDS011;9146;48.074;11.968;2022-10-16T05:04:33;6.37;;;5.70;;
18042;SDS011;9146;48.074;11.968;2022-10-16T05:07:00;8.50;;;5.20;;
18042;SDS011;9146;48.074;11.968;2022-10-16T05:09:27;9.93;;;5.53;;
18042;SDS011;9146;48.074;11.968;2022-10-16T05:11:53;6.57;;;5.83;;
18042;SDS011;9146;48.074;11.968;2022-10-16T05:14:20;8.60;;;6.53;;
18042;SDS011;9146;48.074;11.968;2022-10-16T05:16:47;8.17;;;6.33;;
18042;SDS011;9146;48.074;11.968;2022-10-16T05:19:15;7.77;;;6.80;;
18042;SDS011;9146;48.074;11.968;2022-10-16T05:21:43;13.33;;;10.57;;
18042;SDS011;9146;48.074;11.968;2022-10-16T05:24:10;11.47;;;9.30;;
18042;SDS011;9146;48.074;11.968;2022-10-16T05:26:36;9.40;;;7.20;;
18042;SDS011;9146;48.074;11.968;2022-10-16T05:29:03;10.13;;;7.70;;
18042;SDS011;9146;48.074;11.968;2022-10-16T05:31:30;9.80;;;7.10;;
18042;SDS011;9146;48.074;11.968;2022-10-16T05:33:58;8.17;;;6.70;;
18042;SDS011;9146;48.074;11.968;2022-10-16T05:36:27;6.20;;;5.60;;
18042;SDS011;9146;48.074;11.968;2022-10-16T05:38:54;10.47;;;6.63;;
18042;SDS011;9146;48.074;11.968;2022-10-16T05:41:20;8.80;;;5.90;;
18042;SDS011;9146;48.074;11.968;2022-10-16T05:43:50;8.90;;;6.37;;
18042;SDS011;9146;48.074;11.968;2022-10-16T05:46:20;9.70;;;6.93;;
18042;SDS011;9146;48.074;11.968;2022-10-16T05:48:48;11.60;;;6.70;;
18042;SDS011;9146;48.074;11.968;2022-10-16T05:51:17;8.83;;;6.37;;
18042;SDS011;9146;48.074;11.968;2022-10-16T05:53:45;10.70;;;7.30;;
18042;SDS011;9146;48.074;11.968;2022-10-16T05:56:12;7.67;;;6.40;;
18042;SDS011;9146;48.074;11.968;2022-10-16T05:58:39;6.63;;;5.80;;
18042;SDS011;9146;48.074;11.968;2022-10-16T06:01:08;7.37;;;6.43;;
18042;SDS011;9146;48.074;11.968;2022-10-16T06:03:37;6.50;;;5.87;;
18042;SDS011;9146;48.074;11.968;2022-10-16T06:06:07;7.43;;;6.40;;
18042;SDS011;9146;48.074;11.968;2022-10-16T06:08:35;6.13;;;5.53;;
18042;SDS011;9146;48.074;11.968;2022-10-16T06:11:04;7.10;;;5.53;;
18042;SDS011;9146;48.074;11.968;2022-10-16T06:13:32;10.10;;;6.03;;
18042;SDS011;9146;48.074;11.968;2022-10-16T06:15:59;5.33;;;4.40;;
18042;SDS011;9146;48.074;11.968;2022-10-16T06:18:27;5.20;;;4.80;;
18042;SDS011;9146;48.074;11.968;2022-10-16T06:20:54;6.93;;;4.93;;
18042;SDS011;9146;48.074;11.968;2022-10-16T06:23:22;8.00;;;5.80;;
18042;SDS011;9146;48.074;11.968;2022-10-16T06:25:49;6.10;;;5.13;;
18042;SDS011;9146;48.074;11.968;2022-10-16T06:28:17;5.93;;;5.40;;
18042;SDS011;9146;48.074;11.968;2022-10-16T06:30:44;9.80;;;5.30;;
18042;SDS011;9146;48.074;11.968;2022-10-16T06:33:11;6.33;;;5.30;;
18042;SDS011;9146;48.074;11.968;2022-10-16T06:35:39;4.83;;;4.33;;
18042;SDS011;9146;48.074;11.968;2022-10-16T06:38:06;4.80;;;4.40;;
18042;SDS011;9146;48.074;11.968;2022-10-16T06:40:33;4.70;;;4.30;;
18042;SDS011;9146;48.074;11.968;2022-10-16T06:43:00;6.00;;;5.03;;
18042;SDS011;9146;48.074;11.968;2022-10-16T06:45:28;5.50;;;4.90;;
18042;SDS011;9146;48.074;11.968;2022-10-16T06:47:55;5.63;;;5.13;;
18042;SDS011;9146;48.074;11.968;2022-10-16T06:50:22;7.00;;;5.80;;
18042;SDS011;9146;48.074;11.968;2022-10-16T06:52:49;5.90;;;5.30;;
18042;SDS011;9146;48.074;11.968;2022-10-16T06:55:15;5.60;;;5.10;;
18042;SDS011;9146;48.074;11.968;2022-10-16T06:57:43;5.30;;;4.90;;
18042;SDS011;9146;48.074;11.968;2022-10-16T07:00:12;5.23;;;4.73;;
18042;SDS011;9146;48.074;11.968;2022-10-16T07:02:41;7.03;;;4.50;;
18042;SDS011;9146;48.074;11.968;2022-10-16T07:05:08;5.30;;;4.17;;
18042;SDS011;9146;48.074;11.968;2022-10-16T07:07:35;4.70;;;4.30;;
18042;SDS011;9146;48.074;11.968;2022-10-16T07:10:02;6.13;;;4.17;;
18042;SDS011;9146;48.074;11.968;2022-10-16T07:12:29;4.80;;;4.33;;
18042;SDS011;9146;48.074;11.968;2022-10-16T07:14:56;4.30;;;3.90;;
18042;SDS011;9146;48.074;11.968;2022-10-16T07:17:23;6.20;;;5.07;;
18042;SDS011;9146;48.074;11.968;2022-10-16T07:19:51;5.63;;;4.53;;
18042;SDS011;9146;48.074;11.968;2022-10-16T07:22:20;4.83;;;4.43;;
18042;SDS011;9146;48.074;11.968;2022-10-16T07:24:47;5.10;;;4.27;;
18042;SDS011;9146;48.074;11.968;2022-10-16T07:27:13;5.37;;;4.87;;
18042;SDS011;9146;48.074;11.968;2022-10-16T07:29:41;4.20;;;3.80;;
18042;SDS011;9146;48.074;11.968;2022-10-16T07:32:08;4.97;;;4.53;;
18042;SDS011;9146;48.074;11.968;2022-10-16T07:34:35;6.00;;;4.10;;
18042;SDS011;9146;48.074;11.968;2022-10-16T07:37:03;4.57;;;4.03;;
18042;SDS011;9146;48.074;11.968;2022-10-16T07:39:30;4.40;;;4.10;;
18042;SDS011;9146;48.074;11.968;2022-10-16T07:41:57;7.80;;;4.07;;
18042;SDS011;9146;48.074;11.968;2022-10-16T07:44:24;7.23;;;3.90;;
18042;SDS011;9146;48.074;11.968;2022-10-16T07:46:51;8.07;;;4.50;;
18042;SDS011;9146;48.074;11.968;2022-10-16T07:49:18;3.50;;;3.20;;
18042;SDS011;9146;48.074;11.968;2022-10-16T07:51:45;4.13;;;3.80;;
18042;SDS011;9146;48.074;11.968;2022-10-16T07:54:14;3.40;;;3.17;;
18042;SDS011;9146;48.074;11.968;2022-10-16T07:56:40;4.33;;;3.60;;
18042;SDS011;9146;48.074;11.968;2022-10-16T07:59:07;3.60;;;3.30;;
18042;SDS011;9146;48.074;11.968;2022-10-16T08:01:36;3.70;;;3.40;;
18042;SDS011;9146;48.074;11.968;2022-10-16T08:04:03;4.37;;;3.50;;
18042;SDS011;9146;48.074;11.968;2022-10-16T08:06:34;4.13;;;3.73;;
18042;SDS011;9146;48.074;11.968;2022-10-16T08:09:02;3.30;;;3.10;;
18042;SDS011;9146;48.074;11.968;2022-10-16T08:11:30;4.57;;;3.13;;
18042;SDS011;9146;48.074;11.968;2022-10-16T08:13:58;5.60;;;4.07;;
18042;SDS011;9146;48.074;11.968;2022-10-16T08:16:24;3.70;;;3.40;;
18042;SDS011;9146;48.074;11.968;2022-10-16T08:18:51;3.43;;;3.13;;
18042;SDS011;9146;48.074;11.968;2022-10-16T08:21:19;4.10;;;3.80;;
18042;SDS011;9146;48.074;11.968;2022-10-16T08:23:49;4.73;;;3.63;;
18042;SDS011;9146;48.074;11.968;2022-10-16T08:26:16;4.30;;;3.57;;
18042;SDS011;9146;48.074;11.968;2022-10-16T08:28:46;4.80;;;4.27;;
18042;SDS011;9146;48.074;11.968;2022-10-16T08:31:16;4.60;;;4.10;;
18042;SDS011;9146;48.074;11.968;2022-10-16T08:33:43;3.63;;;3.37;;
18042;SDS011;9146;48.074;11.968;2022-10-16T08:36:12;9.97;;;3.40;;
18042;SDS011;9146;48.074;11.968;2022-10-16T08:38:40;4.00;;;3.10;;
18042;SDS011;9146;48.074;11.968;2022-10-16T08:41:15;2.70;;;2.50;;
18042;SDS011;9146;48.074;11.968;2022-10-16T08:43:58;4.20;;;3.30;;
18042;SDS011;9146;48.074;11.968;2022-10-16T08:46:45;5.07;;;3.60;;
18042;SDS011;9146;48.074;11.968;2022-10-16T08:49:22;5.87;;;3.13;;
18042;SDS011;9146;48.074;11.968;2022-10-16T08:51:49;2.60;;;2.40;;
18042;SDS011;9146;48.074;11.968;2022-10-16T08:54:26;4.40;;;2.60;;
18042;SDS011;9146;48.074;11.968;2022-10-16T08:56:56;2.80;;;2.60;;
18042;SDS011;9146;48.074;11.968;2022-10-16T08:59:24;2.40;;;2.20;;
18042;SDS011;9146;48.074;11.968;2022-10-16T09:01:51;4.73;;;2.83;;
18042;SDS011;9146;48.074;11.968;2022-10-16T09:07:15;2.13;;;2.03;;
18042;SDS011;9146;48.074;11.968;2022-10-16T09:09:54;3.20;;;2.60;;
18042;SDS011;9146;48.074;11.968;2022-10-16T09:12:30;3.20;;;2.43;;
18042;SDS011;9146;48.074;11.968;2022-10-16T09:15:05;2.37;;;2.17;;
18042;SDS011;9146;48.074;11.968;2022-10-16T09:17:45;4.80;;;2.33;;
18042;SDS011;9146;48.074;11.968;2022-10-16T09:20:24;2.27;;;2.07;;
18042;SDS011;9146;48.074;11.968;2022-10-16T09:23:10;3.00;;;1.93;;
18042;SDS011;9146;48.074;11.968;2022-10-16T09:25:43;2.17;;;1.97;;
18042;SDS011;9146;48.074;11.968;2022-10-16T09:28:12;2.63;;;2.40;;
18042;SDS011;9146;48.074;11.968;2022-10-16T09:30:41;2.50;;;2.30;;
18042;SDS011;9146;48.074;11.968;2022-10-16T09:33:09;2.73;;;2.53;;
18042;SDS011;9146;48.074;11.968;2022-10-16T09:35:39;3.73;;;2.10;;
18042;SDS011;9146;48.074;11.968;2022-10-16T09:38:08;3.80;;;2.00;;
18042;SDS011;9146;48.074;11.968;2022-10-16T09:40:46;3.23;;;2.10;;
18042;SDS011;9146;48.074;11.968;2022-10-16T09:43:17;3.03;;;2.43;;
18042;SDS011;9146;48.074;11.968;2022-10-16T09:45:55;6.73;;;2.77;;
18042;SDS011;9146;48.074;11.968;2022-10-16T09:48:26;2.30;;;2.10;;
18042;SDS011;9146;48.074;11.968;2022-10-16T09:50:58;2.40;;;2.20;;
18042;SDS011;9146;48.074;11.968;2022-10-16T09:53:27;2.20;;;2.10;;
18042;SDS011;9146;48.074;11.968;2022-10-16T09:56:05;2.53;;;2.00;;
18042;SDS011;9146;48.074;11.968;2022-10-16T09:58:32;2.73;;;2.53;;
18042;SDS011;9146;48.074;11.968;2022-10-16T10:01:01;5.67;;;2.80;;
18042;SDS011;9146;48.074;11.968;2022-10-16T10:03:33;2.50;;;2.30;;
18042;SDS011;9146;48.074;11.968;2022-10-16T10:06:05;3.73;;;3.00;;
18042;SDS011;9146;48.074;11.968;2022-10-16T10:08:52;3.20;;;2.70;;
18042;SDS011;9146;48.074;11.968;2022-10-16T10:14:28;3.47;;;2.77;;
18042;SDS011;9146;48.074;11.968;2022-10-16T10:17:13;2.57;;;2.37;;
18042;SDS011;9146;48.074;11.968;2022-10-16T10:19:44;3.50;;;2.80;;
18042;SDS011;9146;48.074;11.968;2022-10-16T10:22:24;2.33;;;2.20;;
18042;SDS011;9146;48.074;11.968;2022-10-16T10:27:51;3.00;;;2.67;;
18042;SDS011;9146;48.074;11.968;2022-10-16T10:30:36;3.30;;;3.03;;
18042;SDS011;9146;48.074;11.968;2022-10-16T10:33:18;2.57;;;2.33;;
18042;SDS011;9146;48.074;11.968;2022-10-16T10:35:54;2.90;;;2.70;;
18042;SDS011;9146;48.074;11.968;2022-10-16T10:38:29;2.73;;;2.53;;
18042;SDS011;9146;48.074;11.968;2022-10-16T10:41:05;2.97;;;2.77;;
18042;SDS011;9146;48.074;11.968;2022-10-16T10:43:44;2.93;;;2.67;;
18042;SDS011;9146;48.074;11.968;2022-10-16T10:46:23;2.80;;;2.60;;
18042;SDS011;9146;48.074;11.968;2022-10-16T10:49:02;2.60;;;2.40;;
18042;SDS011;9146;48.074;11.968;2022-10-16T10:51:41;3.57;;;2.90;;
18042;SDS011;9146;48.074;11.968;2022-10-16T10:54:14;4.33;;;2.57;;
18042;SDS011;9146;48.074;11.968;2022-10-16T10:56:47;3.40;;;2.47;;
18042;SDS011;9146;48.074;11.968;2022-10-16T10:59:27;2.73;;;2.53;;
18042;SDS011;9146;48.074;11.968;2022-10-16T11:02:13;2.37;;;2.17;;
18042;SDS011;9146;48.074;11.968;2022-10-16T11:04:58;3.07;;;2.50;;
18042;SDS011;9146;48.074;11.968;2022-10-16T11:07:47;2.27;;;2.07;;
18042;SDS011;9146;48.074;11.968;2022-10-16T11:10:20;3.37;;;2.10;;
18042;SDS011;9146;48.074;11.968;2022-10-16T11:12:49;3.07;;;2.77;;
18042;SDS011;9146;48.074;11.968;2022-10-16T11:15:20;2.90;;;2.20;;
18042;SDS011;9146;48.074;11.968;2022-10-16T11:17:52;2.90;;;2.23;;
18042;SDS011;9146;48.074;11.968;2022-10-16T11:20:27;6.53;;;2.80;;
18042;SDS011;9146;48.074;11.968;2022-10-16T11:22:58;11.30;;;6.37;;
18042;SDS011;9146;48.074;11.968;2022-10-16T11:25:32;2.97;;;2.70;;
18042;SDS011;9146;48.074;11.968;2022-10-16T11:28:01;2.90;;;2.70;;
18042;SDS011;9146;48.074;11.968;2022-10-16T11:30:33;18.10;;;8.37;;
18042;SDS011;9146;48.074;11.968;2022-10-16T11:33:10;12.03;;;6.43;;
18042;SDS011;9146;48.074;11.968;2022-10-16T11:35:52;5.60;;;3.90;;
18042;SDS011;9146;48.074;11.968;2022-10-16T11:38:23;3.70;;;3.20;;
18042;SDS011;9146;48.074;11.968;2022-10-16T11:40:56;2.13;;;2.00;;
18042;SDS011;9146;48.074;11.968;2022-10-16T11:43:29;3.30;;;2.70;;
18042;SDS011;9146;48.074;11.968;2022-10-16T11:46:03;2.13;;;1.93;;
18042;SDS011;9146;48.074;11.968;2022-10-16T11:48:35;3.37;;;2.63;;
18042;SDS011;9146;48.074;11.968;2022-10-16T11:51:11;3.53;;;2.10;;
18042;SDS011;9146;48.074;11.968;2022-10-16T11:53:46;2.47;;;2.27;;
18042;SDS011;9146;48.074;11.968;2022-10-16T11:56:19;5.83;;;2.43;;
18042;SDS011;9146;48.074;11.968;2022-10-16T11:58:50;3.70;;;3.40;;
18042;SDS011;9146;48.074;11.968;2022-10-16T12:01:25;2.93;;;2.47;;
18042;SDS011;9146;48.074;11.968;2022-10-16T12:04:10;3.57;;;2.87;;
18042;SDS011;9146;48.074;11.968;2022-10-16T12:06:46;2.33;;;2.13;;
18042;SDS011;9146;48.074;11.968;2022-10-16T12:09:20;2.10;;;2.00;;
18042;SDS011;9146;48.074;11.968;2022-10-16T12:11:49;2.80;;;2.50;;
18042;SDS011;9146;48.074;11.968;2022-10-16T12:14:20;4.73;;;2.37;;
18042;SDS011;9146;48.074;11.968;2022-10-16T12:17:00;2.30;;;2.10;;
18042;SDS011;9146;48.074;11.968;2022-10-16T12:19:30;2.23;;;2.10;;
18042;SDS011;9146;48.074;11.968;2022-10-16T12:22:00;2.30;;;2.10;;
18042;SDS011;9146;48.074;11.968;2022-10-16T12:24:31;1.87;;;1.77;;
18042;SDS011;9146;48.074;11.968;2022-10-16T12:27:00;2.30;;;2.10;;
18042;SDS011;9146;48.074;11.968;2022-10-16T12:29:30;2.63;;;1.80;;
18042;SDS011;9146;48.074;11.968;2022-10-16T12:32:00;1.97;;;1.87;;
18042;SDS011;9146;48.074;11.968;2022-10-16T12:34:29;1.90;;;1.80;;
18042;SDS011;9146;48.074;11.968;2022-10-16T12:37:10;2.13;;;1.93;;
18042;SDS011;9146;48.074;11.968;2022-10-16T12:39:41;1.93;;;1.83;;
18042;SDS011;9146;48.074;11.968;2022-10-16T12:42:21;2.23;;;2.03;;
18042;SDS011;9146;48.074;11.968;2022-10-16T12:44:50;2.30;;;2.10;;
18042;SDS011;9146;48.074;11.968;2022-10-16T12:47:20;1.73;;;1.63;;
18042;SDS011;9146;48.074;11.968;2022-10-16T12:49:50;2.67;;;1.97;;
18042;SDS011;9146;48.074;11.968;2022-10-16T12:52:31;2.70;;;1.90;;
18042;SDS011;9146;48.074;11.968;2022-10-16T12:55:04;1.47;;;1.40;;
18042;SDS011;9146;48.074;11.968;2022-10-16T12:57:41;1.70;;;1.60;;
18042;SDS011;9146;48.074;11.968;2022-10-16T13:00:19;2.00;;;1.87;;
18042;SDS011;9146;48.074;11.968;2022-10-16T13:03:05;1.70;;;1.57;;
18042;SDS011;9146;48.074;11.968;2022-10-16T13:06:02;2.33;;;1.57;;
18042;SDS011;9146;48.074;11.968;2022-10-16T13:08:45;2.20;;;2.10;;
18042;SDS011;9146;48.074;11.968;2022-10-16T13:11:37;1.83;;;1.73;;
18042;SDS011;9146;48.074;11.968;2022-10-16T13:14:20;1.67;;;1.57;;
18042;SDS011;9146;48.074;11.968;2022-10-16T13:17:00;1.90;;;1.80;;
18042;SDS011;9146;48.074;11.968;2022-10-16T13:19:35;2.00;;;1.90;;
18042;SDS011;9146;48.074;11.968;2022-10-16T13:22:11;1.60;;;1.50;;
18042;SDS011;9146;48.074;11.968;2022-10-16T13:24:53;2.47;;;2.13;;
18042;SDS011;9146;48.074;11.968;2022-10-16T13:27:30;1.70;;;1.60;;
18042;SDS011;9146;48.074;11.968;2022-10-16T13:30:10;1.30;;;1.30;;
18042;SDS011;9146;48.074;11.968;2022-10-16T13:32:43;2.20;;;2.00;;
18042;SDS011;9146;48.074;11.968;2022-10-16T13:35:20;1.50;;;1.40;;
18042;SDS011;9146;48.074;11.968;2022-10-16T13:37:48;1.83;;;1.67;;
18042;SDS011;9146;48.074;11.968;2022-10-16T13:40:20;2.33;;;2.03;;
18042;SDS011;9146;48.074;11.968;2022-10-16T13:42:49;2.17;;;1.97;;
18042;SDS011;9146;48.074;11.968;2022-10-16T13:45:17;1.60;;;1.50;;
18042;SDS011;9146;48.074;11.968;2022-10-16T13:47:45;2.37;;;1.90;;
18042;SDS011;9146;48.074;11.968;2022-10-16T13:50:13;2.90;;;1.80;;
18042;SDS011;9146;48.074;11.968;2022-10-16T13:52:41;2.30;;;2.10;;
18042;SDS011;9146;48.074;11.968;2022-10-16T13:55:12;2.27;;;2.07;;
18042;SDS011;9146;48.074;11.968;2022-10-16T13:57:40;1.77;;;1.67;;
18042;SDS011;9146;48.074;11.968;2022-10-16T14:00:17;2.20;;;1.77;;
18042;SDS011;9146;48.074;11.968;2022-10-16T14:02:49;2.00;;;1.90;;
18042;SDS011;9146;48.074;11.968;2022-10-16T14:05:18;1.93;;;1.83;;
18042;SDS011;9146;48.074;11.968;2022-10-16T14:07:47;1.93;;;1.83;;
18042;SDS011;9146;48.074;11.968;2022-10-16T14:10:20;2.00;;;1.90;;
18042;SDS011;9146;48.074;11.968;2022-10-16T14:12:58;2.00;;;1.80;;
18042;SDS011;9146;48.074;11.968;2022-10-16T14:15:27;2.30;;;2.20;;
18042;SDS011;9146;48.074;11.968;2022-10-16T14:17:56;2.83;;;2.03;;
18042;SDS011;9146;48.074;11.968;2022-10-16T14:20:25;1.70;;;1.60;;
18042;SDS011;9146;48.074;11.968;2022-10-16T14:22:58;1.90;;;1.80;;
18042;SDS011;9146;48.074;11.968;2022-10-16T14:25:27;1.80;;;1.70;;
18042;SDS011;9146;48.074;11.968;2022-10-16T14:28:01;2.20;;;2.00;;
18042;SDS011;9146;48.074;11.968;2022-10-16T14:30:30;1.90;;;1.80;;
18042;SDS011;9146;48.074;11.968;2022-10-16T14:33:00;2.20;;;2.00;;
18042;SDS011;9146;48.074;11.968;2022-10-16T14:35:30;1.93;;;1.70;;
18042;SDS011;9146;48.074;11.968;2022-10-16T14:37:58;3.57;;;2.00;;
18042;SDS011;9146;48.074;11.968;2022-10-16T14:40:26;1.90;;;1.80;;
18042;SDS011;9146;48.074;11.968;2022-10-16T14:42:55;1.70;;;1.60;;
18042;SDS011;9146;48.074;11.968;2022-10-16T14:45:24;2.20;;;2.10;;
18042;SDS011;9146;48.074;11.968;2022-10-16T14:47:54;1.90;;;1.80;;
18042;SDS011;9146;48.074;11.968;2022-10-16T14:50:23;1.90;;;1.77;;
18042;SDS011;9146;48.074;11.968;2022-10-16T14:52:50;1.70;;;1.60;;
18042;SDS011;9146;48.074;11.968;2022-10-16T14:55:17;3.70;;;1.63;;
18042;SDS011;9146;48.074;11.968;2022-10-16T14:57:44;2.07;;;1.97;;
18042;SDS011;9146;48.074;11.968;2022-10-16T15:00:14;1.53;;;1.43;;
18042;SDS011;9146;48.074;11.968;2022-10-16T15:02:48;1.33;;;1.33;;
18042;SDS011;9146;48.074;11.968;2022-10-16T15:05:17;2.07;;;1.93;;
18042;SDS011;9146;48.074;11.968;2022-10-16T15:07:45;1.87;;;1.77;;
18042;SDS011;9146;48.074;11.968;2022-10-16T15:10:14;1.83;;;1.73;;
18042;SDS011;9146;48.074;11.968;2022-10-16T15:12:42;1.73;;;1.63;;
18042;SDS011;9146;48.074;11.968;2022-10-16T15:15:15;1.90;;;1.80;;
18042;SDS011;9146;48.074;11.968;2022-10-16T15:17:53;1.90;;;1.80;;